Time;durP1;ratioP1;P1;durP2;ratioP2;P2;SDS_P1;SDS_P2;PMS_P1;PMS_P2;Temp;Humidity;BMP_temperature;BMP_pressure;BME280_temperature;BME280_humidity;BME280_pressure;Samples;Min_cycle;Max_cycle;Signal;HPM_P1;HPM_P2
2021/01/15 00:02:11;;;;;;;;;;;4.60;99.90;;;;;;5070648;28;19924;-75
2021/01/15 00:05:15;;;;;;;;;;;4.50;99.90;;;;;;5063376;28;19920;-75
2021/01/15 00:08:20;;;;;;;;;;;4.50;99.90;;;;;;5069244;28;19924;-75
2021/01/15 00:11:25;;;;;;;;;;;4.40;99.90;;;;;;5070415;28;20394;-75
2021/01/15 00:14:29;;;;;;;;;;;4.50;99.90;;;;;;5070074;28;20287;-75
2021/01/15 00:17:34;;;;;;;;;;;4.50;99.90;;;;;;5059579;28;20625;-74
2021/01/15 00:20:37;;;;;;;;;;;4.50;99.90;;;;;;5073501;28;19920;-74
2021/01/15 00:23:42;;;;;;;;;;;4.50;99.90;;;;;;5074047;28;19927;-75
2021/01/15 00:26:46;;;;;;;;;;;4.50;99.90;;;;;;5074173;28;19919;-74
2021/01/15 00:29:51;;;;;;;;;;;4.40;99.90;;;;;;5072772;28;20370;-75
2021/01/15 00:32:55;;;;;;;;;;;4.40;99.90;;;;;;5073939;28;19923;-75
2021/01/15 00:35:59;;;;;;;;;;;4.50;99.90;;;;;;5073099;28;19920;-75
2021/01/15 00:39:05;;;;;;;;;;;4.40;99.90;;;;;;5072952;28;19944;-75
2021/01/15 00:42:10;;;;;;;;;;;4.50;99.90;;;;;;5066106;28;19919;-75
2021/01/15 00:45:16;;;;;;;;;;;4.50;99.90;;;;;;5052533;28;19920;-75
2021/01/15 00:48:21;;;;;;;;;;;4.60;99.90;;;;;;5062045;28;19931;-75
2021/01/15 00:51:25;;;;;;;;;;;4.80;99.90;;;;;;5060365;28;19920;-74
2021/01/15 00:54:29;;;;;;;;;;;4.90;99.90;;;;;;5073116;28;19924;-75
2021/01/15 00:57:39;;;;;;;;;;;4.90;99.90;;;;;;5072867;28;19928;-75
2021/01/15 01:00:44;;;;;;;;;;;4.90;99.90;;;;;;5060240;28;19927;-75
2021/01/15 01:04:01;;;;;;;;;;;4.90;99.90;;;;;;5061261;28;20315;-75
2021/01/15 01:07:05;;;;;;;;;;;4.80;99.90;;;;;;5073419;28;19939;-75
2021/01/15 01:10:12;;;;;;;;;;;4.80;99.90;;;;;;5072435;28;19924;-75
2021/01/15 01:13:16;;;;;;;;;;;4.80;99.90;;;;;;5072555;28;19919;-75
2021/01/15 01:16:20;;;;;;;;;;;4.70;99.90;;;;;;5073356;28;19923;-75
2021/01/15 01:19:24;;;;;;;;;;;4.70;99.90;;;;;;5072827;28;20278;-75
2021/01/15 01:22:28;;;;;;;;;;;4.60;99.90;;;;;;5072397;28;20283;-75
2021/01/15 01:25:32;;;;;;;;;;;4.50;99.90;;;;;;5072846;28;19923;-76
2021/01/15 01:28:37;;;;;;;;;;;4.50;99.90;;;;;;5071908;28;19920;-75
2021/01/15 01:31:41;;;;;;;;;;;4.50;99.90;;;;;;5071990;28;19924;-74
2021/01/15 01:34:45;;;;;;;;;;;4.40;99.90;;;;;;5072812;28;19920;-75
2021/01/15 01:37:50;;;;;;;;;;;4.30;99.90;;;;;;5071937;28;19927;-75
2021/01/15 01:40:54;;;;;;;;;;;4.30;99.90;;;;;;5071745;28;19920;-75
2021/01/15 01:43:58;;;;;;;;;;;4.30;99.90;;;;;;5071861;28;20410;-75
2021/01/15 01:47:03;;;;;;;;;;;4.30;99.90;;;;;;5072849;28;19923;-75
2021/01/15 01:50:08;;;;;;;;;;;4.20;99.90;;;;;;5060617;28;19924;-75
2021/01/15 01:53:13;;;;;;;;;;;4.10;99.90;;;;;;5059858;28;19923;-75
2021/01/15 01:56:17;;;;;;;;;;;4.00;99.90;;;;;;5072606;28;19919;-75
2021/01/15 01:59:21;;;;;;;;;;;4.00;99.90;;;;;;5071573;28;20271;-75
2021/01/15 02:02:26;;;;;;;;;;;3.90;99.90;;;;;;5072506;28;19951;-76
2021/01/15 02:05:30;;;;;;;;;;;3.90;99.90;;;;;;5073144;28;19923;-75
2021/01/15 02:08:34;;;;;;;;;;;3.80;99.90;;;;;;5072221;28;20398;-75
2021/01/15 02:11:47;;;;;;;;;;;3.80;99.90;;;;;;5071466;28;19923;-75
2021/01/15 02:14:59;;;;;;;;;;;3.70;99.90;;;;;;5072172;28;19919;-75
2021/01/15 02:18:10;;;;;;;;;;;3.70;99.90;;;;;;5072513;28;20259;-75
2021/01/15 02:21:33;;;;;;;;;;;3.70;99.90;;;;;;5071576;28;19919;-75
2021/01/15 02:24:46;;;;;;;;;;;3.60;99.90;;;;;;5071680;28;19928;-75
2021/01/15 02:28:09;;;;;;;;;;;3.60;99.90;;;;;;5071156;28;19919;-74
2021/01/15 02:31:25;;;;;;;;;;;3.60;99.90;;;;;;5071330;28;20363;-75
2021/01/15 02:34:59;;;;;;;;;;;3.60;99.90;;;;;;5059010;28;19927;-75
2021/01/15 02:38:13;;;;;;;;;;;3.60;99.90;;;;;;5070256;28;20393;-75
2021/01/15 02:41:24;;;;;;;;;;;3.70;99.90;;;;;;5065765;28;19951;-75
2021/01/15 02:44:29;;;;;;;;;;;3.60;99.90;;;;;;5055847;28;19919;-75
2021/01/15 02:48:01;;;;;;;;;;;3.70;99.90;;;;;;5060171;28;19924;-75
2021/01/15 02:51:07;;;;;;;;;;;3.80;99.90;;;;;;5061569;28;19923;-75
2021/01/15 02:54:10;;;;;;;;;;;3.70;99.90;;;;;;5062408;28;19931;-75
2021/01/15 02:57:16;;;;;;;;;;;3.80;99.90;;;;;;5062883;28;20307;-75
2021/01/15 03:00:21;;;;;;;;;;;3.70;99.90;;;;;;5069759;28;19927;-75
2021/01/15 03:03:29;;;;;;;;;;;3.80;99.90;;;;;;5056281;28;19927;-75
2021/01/15 03:06:44;;;;;;;;;;;3.80;99.90;;;;;;5061119;28;19919;-75
2021/01/15 03:09:48;;;;;;;;;;;3.80;99.90;;;;;;5056843;28;19930;-75
2021/01/15 03:12:53;;;;;;;;;;;3.70;99.90;;;;;;5070347;28;19919;-74
2021/01/15 03:15:58;;;;;;;;;;;3.70;99.90;;;;;;5071277;28;20279;-75
2021/01/15 03:19:04;;;;;;;;;;;3.60;99.90;;;;;;5070500;28;19927;-75
2021/01/15 03:22:16;;;;;;;;;;;3.60;99.90;;;;;;5070427;28;19924;-75
2021/01/15 03:25:20;;;;;;;;;;;3.50;99.90;;;;;;5071145;28;19920;-75
2021/01/15 03:28:23;;;;;;;;;;;3.50;99.90;;;;;;5070209;28;20378;-75
2021/01/15 03:31:28;;;;;;;;;;;3.50;99.90;;;;;;5070571;28;19943;-75
2021/01/15 03:34:32;;;;;;;;;;;3.50;99.90;;;;;;5070939;28;19983;-75
2021/01/15 03:37:36;;;;;;;;;;;3.50;99.90;;;;;;5071033;28;20406;-75
2021/01/15 03:40:41;;;;;;;;;;;3.50;99.90;;;;;;5070448;28;19924;-75
2021/01/15 03:43:44;;;;;;;;;;;3.50;99.90;;;;;;5070436;28;19923;-75
2021/01/15 03:46:55;;;;;;;;;;;3.60;99.90;;;;;;5071028;28;20370;-74
2021/01/15 03:49:59;;;;;;;;;;;3.70;99.90;;;;;;5070826;28;19927;-75
2021/01/15 03:53:03;;;;;;;;;;;3.70;99.90;;;;;;5072066;28;19940;-75
2021/01/15 03:56:07;;;;;;;;;;;3.80;99.90;;;;;;5075354;28;19919;-75
2021/01/15 03:59:11;;;;;;;;;;;3.80;99.90;;;;;;5073954;28;19923;-75
2021/01/15 04:02:16;;;;;;;;;;;3.80;99.90;;;;;;5075111;28;20366;-75
2021/01/15 04:05:20;;;;;;;;;;;3.80;99.90;;;;;;5075157;28;19924;-75
2021/01/15 04:08:24;;;;;;;;;;;3.80;99.90;;;;;;5074435;28;19923;-75
2021/01/15 04:11:28;;;;;;;;;;;3.80;99.90;;;;;;5073920;28;19919;-75
2021/01/15 04:14:32;;;;;;;;;;;3.70;99.90;;;;;;5073830;28;19923;-75
2021/01/15 04:17:37;;;;;;;;;;;3.70;99.90;;;;;;5063550;28;19920;-75
2021/01/15 04:20:41;;;;;;;;;;;3.70;99.90;;;;;;5073764;28;19927;-75
2021/01/15 04:23:45;;;;;;;;;;;3.80;99.90;;;;;;5074210;28;19919;-75
2021/01/15 04:26:52;;;;;;;;;;;3.80;99.90;;;;;;5074699;28;19923;-75
2021/01/15 04:29:56;;;;;;;;;;;3.90;99.90;;;;;;5073663;28;20394;-75
2021/01/15 04:33:00;;;;;;;;;;;3.90;99.90;;;;;;5064027;28;19923;-75
2021/01/15 04:36:05;;;;;;;;;;;3.90;99.90;;;;;;5074404;28;20375;-75
2021/01/15 04:39:09;;;;;;;;;;;3.90;99.90;;;;;;5073583;28;19923;-74
2021/01/15 04:42:15;;;;;;;;;;;3.90;99.90;;;;;;5073341;28;19924;-74
2021/01/15 04:45:20;;;;;;;;;;;3.90;99.90;;;;;;5074159;28;19920;-75
2021/01/15 04:48:24;;;;;;;;;;;3.90;99.90;;;;;;5073916;28;19919;-74
2021/01/15 04:51:28;;;;;;;;;;;4.00;99.90;;;;;;5072980;28;19920;-75
2021/01/15 04:54:36;;;;;;;;;;;4.00;99.90;;;;;;5073755;28;19927;-75
2021/01/15 04:57:41;;;;;;;;;;;4.00;99.90;;;;;;5072415;28;19920;-75
2021/01/15 05:00:45;;;;;;;;;;;4.10;99.90;;;;;;5073242;28;19927;-75
2021/01/15 05:03:49;;;;;;;;;;;4.20;99.90;;;;;;5072938;28;19923;-75
2021/01/15 05:06:53;;;;;;;;;;;4.20;99.90;;;;;;5073557;28;19923;-75
2021/01/15 05:09:59;;;;;;;;;;;4.20;99.90;;;;;;5072898;28;19940;-75
2021/01/15 05:13:05;;;;;;;;;;;4.30;99.90;;;;;;5072126;28;20390;-75
2021/01/15 05:16:09;;;;;;;;;;;4.30;99.90;;;;;;5064458;28;20782;-75
2021/01/15 05:19:14;;;;;;;;;;;4.30;99.90;;;;;;5073519;28;19927;-75
2021/01/15 05:22:18;;;;;;;;;;;4.30;99.90;;;;;;5072023;28;19924;-75
2021/01/15 05:25:24;;;;;;;;;;;4.30;99.90;;;;;;5071514;28;19928;-75
2021/01/15 05:28:30;;;;;;;;;;;4.30;99.90;;;;;;5069497;28;19923;-75
2021/01/15 05:31:49;;;;;;;;;;;4.30;99.90;;;;;;5068004;28;19920;-75
2021/01/15 05:34:54;;;;;;;;;;;4.20;99.90;;;;;;5071954;28;19919;-75
2021/01/15 05:37:59;;;;;;;;;;;4.10;99.90;;;;;;5072612;28;19919;-75
2021/01/15 05:41:03;;;;;;;;;;;4.10;99.90;;;;;;5072085;28;20390;-75
2021/01/15 05:44:08;;;;;;;;;;;4.10;99.90;;;;;;5071359;28;19919;-75
2021/01/15 05:47:12;;;;;;;;;;;4.10;99.90;;;;;;5060277;28;20275;-75
2021/01/15 05:50:17;;;;;;;;;;;4.10;99.90;;;;;;5072141;28;20370;-75
2021/01/15 05:53:25;;;;;;;;;;;4.10;99.90;;;;;;5065788;28;20333;-75
2021/01/15 05:56:39;;;;;;;;;;;4.20;99.90;;;;;;5071645;28;20390;-75
2021/01/15 05:59:43;;;;;;;;;;;4.20;99.90;;;;;;5068591;28;19928;-75
2021/01/15 06:02:48;;;;;;;;;;;4.20;99.90;;;;;;5068742;28;19927;-75
2021/01/15 06:05:52;;;;;;;;;;;4.20;99.90;;;;;;5072322;28;19935;-75
2021/01/15 06:08:56;;;;;;;;;;;4.20;99.90;;;;;;5070574;28;19919;-75
2021/01/15 06:12:04;;;;;;;;;;;4.20;99.90;;;;;;5067787;28;20088;-75
2021/01/15 06:15:08;;;;;;;;;;;4.30;99.90;;;;;;5067785;28;19924;-75
2021/01/15 06:18:16;;;;;;;;;;;4.30;99.90;;;;;;5067400;28;19924;-75
2021/01/15 06:21:19;;;;;;;;;;;4.30;99.90;;;;;;5055116;28;20280;-75
2021/01/15 06:24:25;;;;;;;;;;;4.30;99.90;;;;;;5070199;28;21377;-75
2021/01/15 06:27:35;;;;;;;;;;;4.30;99.90;;;;;;5071132;28;19924;-75
2021/01/15 06:30:39;;;;;;;;;;;4.30;99.90;;;;;;5067323;28;19920;-75
2021/01/15 06:33:58;;;;;;;;;;;4.20;99.90;;;;;;5065683;28;19924;-75
2021/01/15 06:37:03;;;;;;;;;;;4.20;99.90;;;;;;5064584;28;20323;-75
2021/01/15 06:40:08;;;;;;;;;;;4.20;99.90;;;;;;5067019;28;19928;-75
2021/01/15 06:43:18;;;;;;;;;;;4.20;99.90;;;;;;5066074;28;20685;-75
2021/01/15 06:46:27;;;;;;;;;;;4.20;99.90;;;;;;5060804;28;19931;-75
2021/01/15 06:49:34;;;;;;;;;;;4.10;99.90;;;;;;5065888;28;20275;-75
2021/01/15 06:52:41;;;;;;;;;;;4.10;99.90;;;;;;5066600;28;19927;-75
2021/01/15 06:55:49;;;;;;;;;;;4.10;99.90;;;;;;5068973;28;19932;-75
2021/01/15 06:58:58;;;;;;;;;;;4.10;99.90;;;;;;5065559;28;19927;-75
2021/01/15 07:02:09;;;;;;;;;;;4.10;99.90;;;;;;5060445;28;19935;-75
2021/01/15 07:05:15;;;;;;;;;;;4.10;99.90;;;;;;5064104;28;19923;-75
2021/01/15 07:08:23;;;;;;;;;;;4.10;99.90;;;;;;5068896;28;19939;-75
2021/01/15 07:11:28;;;;;;;;;;;4.30;99.90;;;;;;5058693;28;19923;-75
2021/01/15 07:14:41;;;;;;;;;;;4.40;99.90;;;;;;5062854;28;19919;-75
2021/01/15 07:17:46;;;;;;;;;;;4.40;99.90;;;;;;5060457;28;20401;-75
2021/01/15 07:20:56;;;;;;;;;;;4.50;99.90;;;;;;5065194;28;19928;-75
2021/01/15 07:24:05;;;;;;;;;;;4.50;99.90;;;;;;5068050;28;20283;-75
2021/01/15 07:27:10;;;;;;;;;;;4.60;99.90;;;;;;5066642;28;19924;-75
2021/01/15 07:30:25;;;;;;;;;;;4.70;99.90;;;;;;5066586;28;19939;-75
2021/01/15 07:33:31;;;;;;;;;;;4.70;99.90;;;;;;5070241;28;19919;-75
2021/01/15 07:36:36;;;;;;;;;;;4.90;99.90;;;;;;5069291;28;19928;-75
2021/01/15 07:39:57;;;;;;;;;;;4.90;99.90;;;;;;5068737;28;19932;-75
2021/01/15 07:43:02;;;;;;;;;;;5.00;99.90;;;;;;5065922;28;19919;-75
2021/01/15 07:46:06;;;;;;;;;;;5.10;99.90;;;;;;5068321;28;20540;-75
2021/01/15 07:49:11;;;;;;;;;;;5.20;99.90;;;;;;5068221;28;19928;-75
2021/01/15 07:52:16;;;;;;;;;;;5.40;99.90;;;;;;5066217;28;19920;-75
2021/01/15 07:55:20;;;;;;;;;;;5.40;99.90;;;;;;5056374;28;20383;-75
2021/01/15 07:58:43;;;;;;;;;;;5.60;99.90;;;;;;5057918;28;19935;-75
2021/01/15 08:01:47;;;;;;;;;;;5.60;99.90;;;;;;5066535;28;20295;-75
2021/01/15 08:05:02;;;;;;;;;;;5.70;99.90;;;;;;5057519;28;19920;-75
2021/01/15 08:08:10;;;;;;;;;;;5.80;99.90;;;;;;5069378;28;19920;-75
2021/01/15 08:11:14;;;;;;;;;;;6.00;99.90;;;;;;5067965;28;19924;-75
2021/01/15 08:14:23;;;;;;;;;;;6.20;99.90;;;;;;5069248;28;20275;-75
2021/01/15 08:17:27;;;;;;;;;;;6.60;99.90;;;;;;5063687;28;19920;-75
2021/01/15 08:20:32;;;;;;;;;;;7.10;99.90;;;;;;5063438;28;19927;-75
2021/01/15 08:23:36;;;;;;;;;;;8.50;99.90;;;;;;5063007;28;19923;-75
2021/01/15 08:26:45;;;;;;;;;;;10.20;99.90;;;;;;5063534;28;19924;-75
2021/01/15 08:29:50;;;;;;;;;;;11.50;99.90;;;;;;5066033;28;20595;-75
2021/01/15 08:32:56;;;;;;;;;;;12.30;99.90;;;;;;5066979;28;19943;-75
2021/01/15 08:36:02;;;;;;;;;;;13.10;99.90;;;;;;5068272;28;19927;-75
2021/01/15 08:39:08;;;;;;;;;;;14.80;99.90;;;;;;5069914;28;19927;-75
2021/01/15 08:42:13;;;;;;;;;;;16.20;94.60;;;;;;5073852;28;19913;-75
2021/01/15 08:45:17;;;;;;;;;;;18.50;91.20;;;;;;5069512;28;20401;-75
2021/01/15 08:48:21;;;;;;;;;;;20.30;76.50;;;;;;5071177;28;19927;-75
2021/01/15 08:51:27;;;;;;;;;;;21.40;68.60;;;;;;5072306;28;19935;-75
2021/01/15 08:54:33;;;;;;;;;;;21.80;62.30;;;;;;5071077;28;19923;-75
2021/01/15 08:57:36;;;;;;;;;;;19.40;62.50;;;;;;5067924;28;19923;-75
2021/01/15 09:00:40;;;;;;;;;;;17.70;64.80;;;;;;5064280;28;19932;-75
2021/01/15 09:03:46;;;;;;;;;;;15.90;68.40;;;;;;5057179;28;19924;-75
2021/01/15 09:06:52;;;;;;;;;;;15.60;72.20;;;;;;5056542;28;19924;-75
2021/01/15 09:09:56;;;;;;;;;;;14.70;71.30;;;;;;5056084;28;20374;-75
2021/01/15 09:13:02;;;;;;;;;;;14.20;74.90;;;;;;5071429;28;19935;-75
2021/01/15 09:16:16;;;;;;;;;;;13.00;77.70;;;;;;5071715;28;19919;-75
2021/01/15 09:19:20;;;;;;;;;;;11.80;83.70;;;;;;5070891;28;20374;-75
2021/01/15 09:22:26;;;;;;;;;;;11.30;86.60;;;;;;5071656;28;19927;-75
2021/01/15 09:25:31;;;;;;;;;;;11.00;90.90;;;;;;5070962;28;19920;-75
2021/01/15 09:28:35;;;;;;;;;;;11.00;92.20;;;;;;5057649;28;19927;-75
2021/01/15 09:31:40;;;;;;;;;;;10.40;94.80;;;;;;5070975;28;19927;-75
2021/01/15 09:34:44;;;;;;;;;;;10.30;96.90;;;;;;5067126;28;19939;-75
2021/01/15 09:37:49;;;;;;;;;;;11.10;97.70;;;;;;5061364;28;19919;-75
2021/01/15 09:40:53;;;;;;;;;;;12.10;99.60;;;;;;5069120;28;20382;-75
2021/01/15 09:43:57;;;;;;;;;;;13.70;98.30;;;;;;5068511;28;19920;-75
2021/01/15 09:47:02;;;;;;;;;;;14.70;92.30;;;;;;5055939;28;20355;-75
2021/01/15 09:50:07;;;;;;;;;;;17.20;82.70;;;;;;5068522;28;19920;-76
2021/01/15 09:53:12;;;;;;;;;;;17.20;82.10;;;;;;5063617;28;19924;-76
2021/01/15 09:56:26;;;;;;;;;;;18.70;72.90;;;;;;5068908;28;19920;-76
2021/01/15 09:59:30;;;;;;;;;;;20.40;67.50;;;;;;5067700;28;19931;-76
2021/01/15 10:02:34;;;;;;;;;;;22.20;65.10;;;;;;5069621;28;20279;-75
2021/01/15 10:05:39;;;;;;;;;;;24.10;59.40;;;;;;5071019;28;19967;-76
2021/01/15 10:08:45;;;;;;;;;;;24.00;58.40;;;;;;5065629;28;19920;-76
2021/01/15 10:11:49;;;;;;;;;;;23.50;58.60;;;;;;5063121;28;19920;-76
2021/01/15 10:14:53;;;;;;;;;;;24.20;52.90;;;;;;5070537;28;19939;-76
2021/01/15 10:17:57;;;;;;;;;;;23.60;51.70;;;;;;5070093;28;20457;-76
2021/01/15 10:21:03;;;;;;;;;;;22.50;53.50;;;;;;5068970;28;19990;-76
2021/01/15 10:24:08;;;;;;;;;;;22.20;53.60;;;;;;5069389;28;19923;-76
2021/01/15 10:27:12;;;;;;;;;;;22.10;53.30;;;;;;5070331;28;19924;-76
2021/01/15 10:30:16;;;;;;;;;;;22.40;52.50;;;;;;5068946;28;19912;-76
2021/01/15 10:33:21;;;;;;;;;;;21.90;53.70;;;;;;5050311;28;20432;-76
2021/01/15 10:36:27;;;;;;;;;;;19.50;57.40;;;;;;5064988;28;19939;-76
2021/01/15 10:39:30;;;;;;;;;;;19.50;58.80;;;;;;5055205;28;20386;-76
2021/01/15 10:42:38;;;;;;;;;;;19.70;56.40;;;;;;5063366;28;19924;-76
2021/01/15 10:45:43;;;;;;;;;;;19.40;56.80;;;;;;5068290;28;19927;-76
2021/01/15 10:48:47;;;;;;;;;;;18.90;59.40;;;;;;5067057;28;19939;-76
2021/01/15 10:51:54;;;;;;;;;;;19.60;57.20;;;;;;5062131;28;19924;-76
2021/01/15 10:54:59;;;;;;;;;;;19.70;56.20;;;;;;5067283;28;19928;-76
2021/01/15 10:58:05;;;;;;;;;;;18.20;58.40;;;;;;5067450;28;19919;-76
2021/01/15 11:01:09;;;;;;;;;;;17.60;60.00;;;;;;5057662;28;19921;-76
2021/01/15 11:04:14;;;;;;;;;;;15.50;60.40;;;;;;5069378;28;19919;-76
2021/01/15 11:07:18;;;;;;;;;;;15.30;63.10;;;;;;5048962;28;19920;-76
2021/01/15 11:10:22;;;;;;;;;;;16.20;68.50;;;;;;5063354;28;19924;-76
2021/01/15 11:13:26;;;;;;;;;;;17.80;67.20;;;;;;5069328;28;19917;-75
2021/01/15 11:16:31;;;;;;;;;;;20.10;56.20;;;;;;5070741;28;19920;-76
2021/01/15 11:19:36;;;;;;;;;;;19.50;54.30;;;;;;5058580;28;19924;-76
2021/01/15 11:22:41;;;;;;;;;;;21.20;53.90;;;;;;5052780;28;20376;-76
2021/01/15 11:25:45;;;;;;;;;;;18.50;54.80;;;;;;5073498;28;19919;-76
2021/01/15 11:28:49;;;;;;;;;;;20.10;55.30;;;;;;5069352;28;20356;-76
2021/01/15 11:31:53;;;;;;;;;;;21.70;51.40;;;;;;5067203;28;19916;-76
2021/01/15 11:34:58;;;;;;;;;;;20.80;54.70;;;;;;5062358;28;19936;-76
2021/01/15 11:38:03;;;;;;;;;;;18.90;56.30;;;;;;5062721;28;19924;-76
2021/01/15 11:41:08;;;;;;;;;;;17.70;59.00;;;;;;5058046;28;20631;-76
2021/01/15 11:44:13;;;;;;;;;;;17.20;59.80;;;;;;5055982;28;19924;-76
2021/01/15 11:47:17;;;;;;;;;;;16.80;60.00;;;;;;5053580;28;19919;-76
2021/01/15 11:50:22;;;;;;;;;;;18.20;60.80;;;;;;5063920;28;20003;-76
2021/01/15 11:53:31;;;;;;;;;;;19.30;58.50;;;;;;5068553;28;20302;-76
2021/01/15 11:56:35;;;;;;;;;;;17.10;59.50;;;;;;5064427;28;19920;-76
2021/01/15 11:59:39;;;;;;;;;;;18.20;61.20;;;;;;5063148;28;19939;-76
2021/01/15 12:02:43;;;;;;;;;;;17.70;61.20;;;;;;5068144;28;19945;-76
2021/01/15 12:05:49;;;;;;;;;;;15.20;62.20;;;;;;5052579;28;20268;-76
2021/01/15 12:08:54;;;;;;;;;;;14.30;65.00;;;;;;5069177;28;19920;-76
2021/01/15 12:12:01;;;;;;;;;;;14.50;65.00;;;;;;5061299;28;19920;-76
2021/01/15 12:15:06;;;;;;;;;;;15.00;64.10;;;;;;5073092;28;19920;-75
2021/01/15 12:18:12;;;;;;;;;;;15.50;63.20;;;;;;5073466;28;19920;-75
2021/01/15 12:21:19;;;;;;;;;;;16.90;62.30;;;;;;5073403;28;19924;-75
2021/01/15 12:24:23;;;;;;;;;;;17.10;60.90;;;;;;5064488;28;19932;-75
2021/01/15 12:27:27;;;;;;;;;;;17.20;59.90;;;;;;5066647;28;19924;-76
2021/01/15 12:30:32;;;;;;;;;;;18.00;58.20;;;;;;5064802;28;19938;-76
2021/01/15 12:33:36;;;;;;;;;;;17.90;61.60;;;;;;5073505;28;19923;-75
2021/01/15 12:36:44;;;;;;;;;;;18.00;60.60;;;;;;5071974;28;19919;-76
2021/01/15 12:39:48;;;;;;;;;;;16.60;63.50;;;;;;5059506;28;19923;-76
2021/01/15 12:42:53;;;;;;;;;;;15.90;62.70;;;;;;5066358;28;19924;-76
2021/01/15 12:45:57;;;;;;;;;;;15.90;64.10;;;;;;5063072;28;19933;-76
2021/01/15 12:49:01;;;;;;;;;;;16.90;63.80;;;;;;5071790;28;19924;-76
2021/01/15 12:52:05;;;;;;;;;;;17.10;61.40;;;;;;5055464;28;20278;-75
2021/01/15 12:55:10;;;;;;;;;;;16.80;62.00;;;;;;5066574;28;19936;-75
2021/01/15 12:58:14;;;;;;;;;;;16.20;65.90;;;;;;5065590;28;19920;-76
2021/01/15 13:01:18;;;;;;;;;;;16.60;64.10;;;;;;5059316;28;19936;-74
2021/01/15 13:04:22;;;;;;;;;;;16.10;57.10;;;;;;5073096;28;20268;-75
2021/01/15 13:07:26;;;;;;;;;;;15.10;59.20;;;;;;5067835;28;19913;-75
2021/01/15 13:10:31;;;;;;;;;;;14.50;60.90;;;;;;5072723;28;19935;-76
2021/01/15 13:13:36;;;;;;;;;;;14.10;60.20;;;;;;5068783;28;19935;-76
2021/01/15 13:16:41;;;;;;;;;;;13.90;61.20;;;;;;5061915;28;19943;-75
2021/01/15 13:19:46;;;;;;;;;;;13.60;60.00;;;;;;5069955;28;19931;-77
2021/01/15 13:23:00;;;;;;;;;;;13.30;61.70;;;;;;5072485;28;19920;-76
2021/01/15 13:26:04;;;;;;;;;;;13.10;62.70;;;;;;5069237;28;20486;-77
2021/01/15 13:29:09;;;;;;;;;;;12.60;63.60;;;;;;5067603;28;19924;-75
2021/01/15 13:32:14;;;;;;;;;;;12.30;62.70;;;;;;5068277;28;20255;-73
2021/01/15 13:35:18;;;;;;;;;;;12.60;61.90;;;;;;5072270;28;20374;-75
2021/01/15 13:38:22;;;;;;;;;;;12.40;62.80;;;;;;5071393;28;19923;-75
2021/01/15 13:41:27;;;;;;;;;;;11.90;62.60;;;;;;5074610;28;19920;-74
2021/01/15 13:44:31;;;;;;;;;;;11.90;63.20;;;;;;5074730;28;19912;-75
2021/01/15 13:47:35;;;;;;;;;;;12.00;63.50;;;;;;5075333;28;19924;-75
2021/01/15 13:50:47;;;;;;;;;;;12.90;62.60;;;;;;5071333;28;19919;-75
2021/01/15 13:53:53;;;;;;;;;;;13.70;61.00;;;;;;5072304;28;20310;-75
2021/01/15 13:56:57;;;;;;;;;;;12.40;63.40;;;;;;5072328;28;19919;-76
2021/01/15 14:00:01;;;;;;;;;;;11.90;65.00;;;;;;5070281;28;19939;-74
2021/01/15 14:03:15;;;;;;;;;;;11.40;65.70;;;;;;5066113;28;20027;-73
2021/01/15 14:06:19;;;;;;;;;;;11.00;66.80;;;;;;5053304;28;19920;-74
2021/01/15 14:09:24;;;;;;;;;;;10.90;68.00;;;;;;5062683;28;19920;-74
2021/01/15 14:12:31;;;;;;;;;;;10.90;68.20;;;;;;5054233;28;19924;-72
2021/01/15 14:15:36;;;;;;;;;;;10.40;69.10;;;;;;5065296;28;19920;-74
2021/01/15 14:18:40;;;;;;;;;;;10.00;70.20;;;;;;5069192;28;20267;-74
2021/01/15 14:21:44;;;;;;;;;;;9.90;71.00;;;;;;5069618;28;19923;-73
2021/01/15 14:24:49;;;;;;;;;;;9.80;73.00;;;;;;5068362;28;19919;-74
2021/01/15 14:27:53;;;;;;;;;;;9.70;73.10;;;;;;5067393;28;20030;-75
2021/01/15 14:30:58;;;;;;;;;;;9.60;73.60;;;;;;5064830;28;19919;-75
2021/01/15 14:34:04;;;;;;;;;;;10.20;72.60;;;;;;5069628;28;19928;-72
2021/01/15 14:37:08;;;;;;;;;;;10.30;72.50;;;;;;5055896;28;20367;-73
2021/01/15 14:40:15;;;;;;;;;;;10.00;73.10;;;;;;5069390;28;19923;-73
2021/01/15 14:43:20;;;;;;;;;;;9.60;75.20;;;;;;5069227;28;19920;-72
2021/01/15 14:46:24;;;;;;;;;;;9.20;76.20;;;;;;5071038;28;19927;-73
2021/01/15 14:49:29;;;;;;;;;;;9.20;76.60;;;;;;5070210;28;19935;-74
2021/01/15 14:52:34;;;;;;;;;;;8.90;77.30;;;;;;5070274;28;19927;-72
2021/01/15 14:55:38;;;;;;;;;;;8.90;78.40;;;;;;5070071;28;19923;-73
2021/01/15 14:58:41;;;;;;;;;;;8.80;78.30;;;;;;5069106;28;19923;-72
2021/01/15 15:01:47;;;;;;;;;;;8.60;79.20;;;;;;5064470;28;19923;-73
2021/01/15 15:04:52;;;;;;;;;;;8.50;80.80;;;;;;5068274;28;19941;-71
2021/01/15 15:07:56;;;;;;;;;;;8.40;81.80;;;;;;5070375;28;19920;-75
2021/01/15 15:11:01;;;;;;;;;;;8.20;83.10;;;;;;5068686;28;19931;-73
2021/01/15 15:14:06;;;;;;;;;;;8.30;83.50;;;;;;5068054;28;19967;-73
2021/01/15 15:17:10;;;;;;;;;;;8.40;82.70;;;;;;5070358;28;20127;-75
2021/01/15 15:20:16;;;;;;;;;;;8.60;83.20;;;;;;5069402;28;19924;-74
2021/01/15 15:23:21;;;;;;;;;;;8.60;84.00;;;;;;5068810;28;19919;-72
2021/01/15 15:26:25;;;;;;;;;;;8.70;83.30;;;;;;5067679;28;19924;-75
2021/01/15 15:29:31;;;;;;;;;;;8.80;84.00;;;;;;5070217;28;19920;-74
2021/01/15 15:32:35;;;;;;;;;;;8.70;83.40;;;;;;5059650;28;19939;-72
2021/01/15 15:35:39;;;;;;;;;;;8.40;84.40;;;;;;5055592;28;19924;-73
2021/01/15 15:38:46;;;;;;;;;;;8.30;85.20;;;;;;5069362;28;19920;-72
2021/01/15 15:41:53;;;;;;;;;;;8.00;85.90;;;;;;5070293;28;19923;-72
2021/01/15 15:44:58;;;;;;;;;;;8.00;86.80;;;;;;5070042;28;19919;-73
2021/01/15 15:48:02;;;;;;;;;;;7.80;87.20;;;;;;5066364;28;19919;-74
2021/01/15 15:51:13;;;;;;;;;;;7.60;89.70;;;;;;5045411;28;19979;-72
2021/01/15 15:54:17;;;;;;;;;;;7.40;90.60;;;;;;5074420;28;20383;-73
2021/01/15 15:57:21;;;;;;;;;;;7.10;90.90;;;;;;5073053;28;19924;-74
2021/01/15 16:00:26;;;;;;;;;;;6.90;91.80;;;;;;5074265;28;19923;-74
2021/01/15 16:03:30;;;;;;;;;;;6.80;92.90;;;;;;5063913;28;19928;-72
2021/01/15 16:06:34;;;;;;;;;;;6.70;94.20;;;;;;5074943;28;19935;-73
2021/01/15 16:09:39;;;;;;;;;;;6.60;95.00;;;;;;5057776;28;19924;-72
2021/01/15 16:12:43;;;;;;;;;;;6.50;95.80;;;;;;5070247;28;20409;-72
2021/01/15 16:15:48;;;;;;;;;;;6.50;96.70;;;;;;5074397;28;19936;-72
2021/01/15 16:18:54;;;;;;;;;;;6.40;97.90;;;;;;5064064;28;19920;-72
2021/01/15 16:21:58;;;;;;;;;;;6.30;98.90;;;;;;5066611;28;20030;-72
2021/01/15 16:25:07;;;;;;;;;;;6.30;99.70;;;;;;5073625;28;19923;-72
2021/01/15 16:28:11;;;;;;;;;;;6.20;99.90;;;;;;5057640;28;20385;-74
2021/01/15 16:31:16;;;;;;;;;;;6.20;99.90;;;;;;5074604;28;20267;-71
2021/01/15 16:34:20;;;;;;;;;;;6.20;99.90;;;;;;5068848;28;19923;-74
2021/01/15 16:37:24;;;;;;;;;;;6.10;99.90;;;;;;5063628;28;19940;-73
2021/01/15 16:40:28;;;;;;;;;;;6.10;99.90;;;;;;5068431;28;20255;-74
2021/01/15 16:43:33;;;;;;;;;;;6.10;99.90;;;;;;5072305;28;19924;-72
2021/01/15 16:46:39;;;;;;;;;;;6.00;99.90;;;;;;5072739;28;19919;-72
2021/01/15 16:49:43;;;;;;;;;;;6.10;99.90;;;;;;5065516;28;19923;-71
2021/01/15 16:52:47;;;;;;;;;;;6.00;99.90;;;;;;5060424;28;19939;-73
2021/01/15 16:55:51;;;;;;;;;;;6.00;99.90;;;;;;5053786;28;19920;-74
2021/01/15 16:58:55;;;;;;;;;;;6.00;99.90;;;;;;5071031;28;19939;-76
2021/01/15 17:01:59;;;;;;;;;;;6.00;99.90;;;;;;5067113;28;19943;-75
2021/01/15 17:05:03;;;;;;;;;;;6.00;99.90;;;;;;5073150;28;19919;-73
2021/01/15 17:08:09;;;;;;;;;;;6.00;99.90;;;;;;5074158;28;19920;-73
2021/01/15 17:11:12;;;;;;;;;;;5.90;99.90;;;;;;5069945;28;19919;-74
2021/01/15 17:14:17;;;;;;;;;;;5.90;99.90;;;;;;5070026;28;19931;-76
2021/01/15 17:17:23;;;;;;;;;;;5.90;99.90;;;;;;5065978;28;19924;-76
2021/01/15 17:20:27;;;;;;;;;;;5.80;99.90;;;;;;5068129;28;19924;-73
2021/01/15 17:23:33;;;;;;;;;;;5.80;99.90;;;;;;5072993;28;19987;-75
2021/01/15 17:26:38;;;;;;;;;;;5.80;99.90;;;;;;5063775;28;19928;-74
2021/01/15 17:29:42;;;;;;;;;;;5.80;99.90;;;;;;5071592;28;20267;-72
2021/01/15 17:32:49;;;;;;;;;;;5.90;99.90;;;;;;5071254;28;19920;-75
2021/01/15 17:35:53;;;;;;;;;;;5.90;99.90;;;;;;5070546;28;20382;-73
2021/01/15 17:38:58;;;;;;;;;;;5.80;99.90;;;;;;5072569;28;19920;-75
2021/01/15 17:42:03;;;;;;;;;;;5.90;99.90;;;;;;5071302;28;19923;-74
2021/01/15 17:45:07;;;;;;;;;;;5.80;99.90;;;;;;5070106;28;20383;-72
2021/01/15 17:48:12;;;;;;;;;;;5.80;99.90;;;;;;5069286;28;19920;-74
2021/01/15 17:51:16;;;;;;;;;;;5.80;99.90;;;;;;5069587;28;19919;-74
2021/01/15 17:54:20;;;;;;;;;;;5.80;99.90;;;;;;5071735;28;19927;-72
2021/01/15 17:57:24;;;;;;;;;;;5.80;99.90;;;;;;5071533;28;19944;-71
2021/01/15 18:00:28;;;;;;;;;;;5.80;99.90;;;;;;5068210;28;19923;-73
2021/01/15 18:03:32;;;;;;;;;;;5.80;99.90;;;;;;5070893;28;19924;-73
2021/01/15 18:06:37;;;;;;;;;;;5.80;99.90;;;;;;5055365;28;19920;-74
2021/01/15 18:09:41;;;;;;;;;;;5.80;99.90;;;;;;5070405;28;19920;-74
2021/01/15 18:12:45;;;;;;;;;;;5.80;99.90;;;;;;5069218;28;19939;-75